Time;durP1;ratioP1;P1;durP2;ratioP2;P2;SDS_P1;SDS_P2;PMS_P1;PMS_P2;Temp;Humidity;BMP_temperature;BMP_pressure;BME280_temperature;BME280_humidity;BME280_pressure;Samples;Min_cycle;Max_cycle;Signal;HPM_P1;HPM_P2
2021/07/08 00:00:05;;;;;;;12.35;7.60;;;;;;;18.04;89.06;96522.38;5010176;28;20054;-72
2021/07/08 00:02:32;;;;;;;11.77;7.53;;;;;;;18.00;89.12;96517.59;5010897;28;20038;-73
2021/07/08 00:04:58;;;;;;;10.27;7.90;;;;;;;17.96;89.44;96522.25;5010996;28;20400;-73
2021/07/08 00:07:25;;;;;;;9.35;7.20;;;;;;;18.03;89.34;96520.78;5008176;28;20042;-73
2021/07/08 00:09:52;;;;;;;11.18;7.72;;;;;;;18.07;88.58;96521.66;5011143;28;20046;-73
2021/07/08 00:12:19;;;;;;;12.98;7.97;;;;;;;18.05;88.80;96521.22;5010685;28;20049;-73
2021/07/08 00:14:46;;;;;;;13.05;8.30;;;;;;;18.02;88.94;96531.03;5010722;28;20042;-73
2021/07/08 00:17:12;;;;;;;14.02;7.95;;;;;;;18.09;89.13;96535.88;5010656;28;20046;-73
2021/07/08 00:19:39;;;;;;;12.63;8.05;;;;;;;18.08;89.22;96526.00;5014107;28;20046;-73
2021/07/08 00:22:06;;;;;;;12.98;7.60;;;;;;;18.12;88.88;96526.91;5014422;28;20056;-74
2021/07/08 00:24:32;;;;;;;11.50;7.53;;;;;;;18.17;88.49;96535.66;5014597;28;20053;-73
2021/07/08 00:26:59;;;;;;;13.77;7.65;;;;;;;18.22;88.23;96518.84;5014611;28;20412;-73
2021/07/08 00:29:27;;;;;;;12.30;7.80;;;;;;;18.22;88.05;96516.09;5013844;28;20053;-73
2021/07/08 00:31:53;;;;;;;17.73;9.23;;;;;;;18.19;87.99;96502.22;5014027;28;20050;-74
2021/07/08 00:34:20;;;;;;;12.48;8.10;;;;;;;18.21;88.15;96499.88;5013824;28;20401;-73
2021/07/08 00:36:46;;;;;;;12.43;7.90;;;;;;;18.15;87.99;96495.84;5014025;28;20046;-73
2021/07/08 00:39:13;;;;;;;14.82;8.27;;;;;;;18.13;87.81;96492.66;5013475;28;20062;-72
2021/07/08 00:41:39;;;;;;;12.07;8.55;;;;;;;18.11;87.85;96493.00;5014172;28;20050;-73
2021/07/08 00:44:06;;;;;;;14.40;8.38;;;;;;;18.14;87.59;96495.03;5013670;28;20505;-73
2021/07/08 00:46:34;;;;;;;12.75;8.40;;;;;;;18.18;87.69;96495.13;5013936;28;20405;-73
2021/07/08 00:49:00;;;;;;;13.98;8.65;;;;;;;18.20;87.80;96479.00;5013647;28;20042;-73
2021/07/08 00:51:27;;;;;;;14.77;9.13;;;;;;;18.21;87.84;96472.31;5013321;28;20046;-73
2021/07/08 00:53:53;;;;;;;16.25;8.60;;;;;;;18.20;87.65;96465.22;5013976;28;20041;-73
2021/07/08 00:56:20;;;;;;;13.20;8.63;;;;;;;18.24;87.54;96469.66;5013465;28;20058;-73
2021/07/08 00:59:00;;;;;;;13.35;8.65;;;;;;;18.25;87.55;96467.69;5013598;28;20041;-73
2021/07/08 01:01:27;;;;;;;11.45;8.75;;;;;;;18.24;87.36;96474.38;5013465;28;20042;-73
2021/07/08 01:03:56;;;;;;;13.43;9.80;;;;;;;18.23;87.46;96476.31;5013469;28;20057;-73
2021/07/08 01:06:23;;;;;;;19.23;10.13;;;;;;;18.21;87.72;96475.88;5012696;28;20058;-74
2021/07/08 01:08:50;;;;;;;16.73;9.82;;;;;;;18.22;87.62;96466.47;5013681;28;20068;-74
2021/07/08 01:11:17;;;;;;;12.95;8.18;;;;;;;18.25;87.55;96462.16;5013053;28;20649;-74
2021/07/08 01:13:43;;;;;;;14.20;9.25;;;;;;;18.24;87.40;96455.88;5013526;28;20046;-74
2021/07/08 01:16:10;;;;;;;11.73;8.40;;;;;;;18.29;87.02;96481.53;5013038;28;20528;-73
2021/07/08 01:18:36;;;;;;;13.73;9.23;;;;;;;18.28;86.96;96472.47;5013521;28;20053;-73
2021/07/08 01:21:23;;;;;;;20.02;9.27;;;;;;;18.25;86.97;96468.47;5012982;28;20064;-73
2021/07/08 01:23:49;;;;;;;15.05;8.75;;;;;;;18.26;86.24;96463.75;5013320;28;20065;-74
2021/07/08 01:26:16;;;;;;;11.52;8.68;;;;;;;18.22;86.41;96469.22;5012765;28;20046;-73
2021/07/08 01:28:43;;;;;;;14.32;8.15;;;;;;;18.23;85.97;96465.31;5013127;28;20041;-73
2021/07/08 01:31:09;;;;;;;18.08;8.52;;;;;;;18.21;86.14;96466.81;5011886;28;20049;-73
2021/07/08 01:33:36;;;;;;;12.43;8.60;;;;;;;18.18;86.25;96471.13;5013287;28;20505;-73
2021/07/08 01:36:02;;;;;;;13.45;9.27;;;;;;;18.17;86.11;96466.75;5012890;28;20057;-72
2021/07/08 01:38:30;;;;;;;13.13;8.93;;;;;;;18.16;86.60;96472.63;5011504;28;20049;-73
2021/07/08 01:40:57;;;;;;;14.30;9.07;;;;;;;18.14;86.67;96473.00;5012905;28;20054;-74
2021/07/08 01:43:23;;;;;;;13.05;9.32;;;;;;;18.13;86.69;96470.59;5012796;28;20042;-73
2021/07/08 01:45:50;;;;;;;17.90;10.23;;;;;;;18.11;86.75;96468.19;5012816;28;20054;-74
2021/07/08 01:48:16;;;;;;;19.25;9.85;;;;;;;18.11;86.75;96464.66;5012536;28;20053;-73
2021/07/08 01:50:43;;;;;;;18.63;10.02;;;;;;;18.11;86.91;96461.88;5012685;28;20046;-73
2021/07/08 01:53:09;;;;;;;17.83;9.23;;;;;;;18.10;86.90;96455.59;5012420;28;20049;-73
2021/07/08 01:55:37;;;;;;;13.93;9.90;;;;;;;18.13;86.85;96460.38;5012639;28;20056;-73
2021/07/08 01:58:04;;;;;;;13.07;10.25;;;;;;;18.10;86.93;96450.06;5012403;28;20054;-73
2021/07/08 02:00:30;;;;;;;16.50;9.88;;;;;;;18.13;86.98;96448.56;5012652;28;20042;-73
2021/07/08 02:02:57;;;;;;;14.52;10.27;;;;;;;18.12;86.99;96446.97;5012662;28;20050;-74
2021/07/08 02:05:24;;;;;;;16.80;10.25;;;;;;;18.12;87.04;96441.47;5011948;28;20662;-73
2021/07/08 02:07:51;;;;;;;16.42;10.35;;;;;;;18.11;87.21;96435.13;5012144;28;20053;-74
2021/07/08 02:10:20;;;;;;;13.63;9.38;;;;;;;18.17;87.30;96427.38;5012092;28;20053;-73
2021/07/08 02:12:48;;;;;;;19.02;9.63;;;;;;;18.15;87.07;96415.91;5012516;28;20046;-73
2021/07/08 02:15:15;;;;;;;13.98;9.77;;;;;;;18.16;87.13;96421.06;5011595;28;20050;-75
2021/07/08 02:17:42;;;;;;;18.38;10.20;;;;;;;18.18;87.19;96409.69;5012427;28;20045;-74
2021/07/08 02:20:12;;;;;;;14.05;9.65;;;;;;;18.16;87.14;96398.22;5011916;28;20045;-73
2021/07/08 02:22:39;;;;;;;15.93;9.88;;;;;;;18.15;87.37;96402.13;5012322;28;20038;-74
2021/07/08 02:25:07;;;;;;;15.13;10.50;;;;;;;18.13;87.69;96407.22;5012011;28;20046;-73
2021/07/08 02:27:36;;;;;;;20.38;9.65;;;;;;;18.16;87.48;96409.22;5012337;28;20038;-73
2021/07/08 02:30:07;;;;;;;16.88;9.60;;;;;;;18.22;87.19;96414.09;5011309;28;20053;-73
2021/07/08 02:32:33;;;;;;;13.05;8.55;;;;;;;18.24;87.19;96422.00;5012156;28;20038;-73
2021/07/08 02:35:00;;;;;;;16.40;8.60;;;;;;;18.23;87.23;96414.91;5012269;28;20050;-73
2021/07/08 02:37:26;;;;;;;13.10;8.63;;;;;;;18.24;87.54;96413.72;5010883;28;20068;-73
2021/07/08 02:39:52;;;;;;;12.95;8.50;;;;;;;18.25;87.51;96409.81;5012067;28;20060;-74
2021/07/08 02:42:19;;;;;;;15.95;9.45;;;;;;;18.30;87.14;96408.72;5011434;28;20046;-74
2021/07/08 02:44:45;;;;;;;17.17;9.45;;;;;;;18.30;86.69;96395.72;5011806;28;20485;-74
2021/07/08 02:47:13;;;;;;;14.75;8.80;;;;;;;18.30;86.69;96398.47;5011411;28;20405;-73
2021/07/08 02:49:40;;;;;;;13.98;8.05;;;;;;;18.29;86.81;96402.41;5011749;28;20437;-73
2021/07/08 02:52:07;;;;;;;15.57;9.48;;;;;;;18.30;86.72;96404.00;5011342;28;20046;-73
2021/07/08 02:54:33;;;;;;;15.30;8.93;;;;;;;18.26;86.90;96403.13;5012069;28;20038;-73
2021/07/08 02:57:00;;;;;;;16.35;10.25;;;;;;;18.25;86.82;96401.53;5011746;28;20501;-73
2021/07/08 02:59:26;;;;;;;18.92;10.18;;;;;;;18.26;87.27;96398.41;5011010;28;20049;-73
2021/07/08 03:01:53;;;;;;;16.02;9.82;;;;;;;18.26;87.19;96408.63;5011770;28;20099;-73
2021/07/08 03:04:21;;;;;;;15.10;9.32;;;;;;;18.29;87.13;96413.44;5011220;28;20050;-74
2021/07/08 03:06:47;;;;;;;16.25;9.65;;;;;;;18.30;86.90;96409.50;5011441;28;20054;-73
2021/07/08 03:09:14;;;;;;;12.15;7.85;;;;;;;18.32;86.84;96415.44;5011129;28;20038;-73
2021/07/08 03:11:40;;;;;;;14.13;8.68;;;;;;;18.36;86.10;96419.06;5011716;28;20042;-73
2021/07/08 03:14:07;;;;;;;11.35;7.88;;;;;;;18.35;85.99;96431.25;5011004;28;20053;-73
2021/07/08 03:16:33;;;;;;;13.60;8.50;;;;;;;18.29;85.97;96429.97;5011716;28;20046;-73
2021/07/08 03:19:00;;;;;;;15.65;8.98;;;;;;;18.26;86.24;96430.69;5011397;28;20049;-73
2021/07/08 03:21:27;;;;;;;13.75;9.18;;;;;;;18.26;86.43;96436.19;5011237;28;20642;-73
2021/07/08 03:23:54;;;;;;;14.50;9.40;;;;;;;18.26;86.68;96436.19;5011425;28;20049;-73
2021/07/08 03:26:20;;;;;;;15.48;8.15;;;;;;;18.28;86.90;96439.41;5011072;28;20050;-73
2021/07/08 03:28:47;;;;;;;15.60;8.90;;;;;;;18.31;86.68;96433.13;5011481;28;20061;-73
2021/07/08 03:31:14;;;;;;;13.88;8.85;;;;;;;18.29;86.62;96435.47;5010630;28;20046;-74
2021/07/08 03:33:41;;;;;;;15.30;9.48;;;;;;;18.28;86.34;96433.09;5011434;28;20096;-73
2021/07/08 03:36:07;;;;;;;16.98;8.77;;;;;;;18.30;86.28;96448.09;5010757;28;20042;-73
2021/07/08 03:38:35;;;;;;;11.50;8.40;;;;;;;18.32;85.95;96443.00;5010581;28;20038;-73
2021/07/08 03:41:01;;;;;;;17.52;9.65;;;;;;;18.34;86.51;96446.19;5011310;28;20050;-73
2021/07/08 03:43:28;;;;;;;12.98;9.63;;;;;;;18.35;86.45;96445.03;5011170;28;20049;-73
2021/07/08 03:45:54;;;;;;;15.63;8.88;;;;;;;18.35;86.69;96456.06;5011260;28;20046;-73
2021/07/08 03:48:21;;;;;;;15.40;9.02;;;;;;;18.38;87.06;96444.31;5010612;28;20046;-73
2021/07/08 03:50:48;;;;;;;17.02;9.75;;;;;;;18.42;87.01;96450.66;5010946;28;20054;-73
2021/07/08 03:53:14;;;;;;;18.88;9.43;;;;;;;18.43;87.12;96441.25;5012048;28;20413;-74
2021/07/08 03:55:42;;;;;;;18.00;8.95;;;;;;;18.47;87.33;96447.59;5014943;28;20046;-74
2021/07/08 03:58:09;;;;;;;16.75;9.27;;;;;;;18.49;87.09;96445.31;5014618;28;20421;-73
2021/07/08 04:00:37;;;;;;;20.63;9.15;;;;;;;18.50;87.18;96452.41;5014812;28;20065;-74
2021/07/08 04:03:06;;;;;;;17.63;8.90;;;;;;;18.50;87.25;96457.13;5014289;28;20057;-73
2021/07/08 04:05:34;;;;;;;16.77;8.93;;;;;;;18.50;86.90;96457.91;5014870;28;20046;-73
2021/07/08 04:08:00;;;;;;;18.23;9.55;;;;;;;18.50;86.84;96460.66;5012777;28;20049;-73
2021/07/08 04:10:28;;;;;;;13.27;8.63;;;;;;;18.51;86.66;96465.03;5014534;28;20042;-73
2021/07/08 04:12:56;;;;;;;15.15;9.38;;;;;;;18.50;87.10;96468.94;5014965;28;20042;-73
2021/07/08 04:15:22;;;;;;;13.55;9.30;;;;;;;18.50;87.05;96470.91;5014080;28;20058;-73
2021/07/08 04:17:49;;;;;;;11.50;8.55;;;;;;;18.53;87.00;96472.91;5014700;28;20045;-73
2021/07/08 04:20:18;;;;;;;14.55;10.13;;;;;;;18.57;87.35;96462.75;5014035;28;20056;-73
2021/07/08 04:22:46;;;;;;;16.80;9.07;;;;;;;18.62;87.26;96464.41;5014536;28;20493;-73
2021/07/08 04:25:13;;;;;;;18.75;9.40;;;;;;;18.64;87.39;96459.34;5014095;28;20088;-73
2021/07/08 04:27:40;;;;;;;16.95;8.52;;;;;;;18.63;87.22;96463.25;5014539;28;20130;-73
2021/07/08 04:30:11;;;;;;;12.20;7.95;;;;;;;18.68;87.06;96457.44;5013937;28;20178;-72
2021/07/08 04:32:38;;;;;;;12.57;8.25;;;;;;;18.70;86.81;96468.94;5014337;28;20046;-73
2021/07/08 04:35:06;;;;;;;12.50;8.95;;;;;;;18.67;86.66;96473.19;5013441;28;20048;-73
2021/07/08 04:37:39;;;;;;;11.48;8.15;;;;;;;18.66;86.80;96479.06;5013918;28;20596;-72
2021/07/08 04:40:07;;;;;;;14.43;9.05;;;;;;;18.61;86.51;96480.16;5014017;28;20382;-73
2021/07/08 04:42:33;;;;;;;11.55;8.00;;;;;;;18.64;86.57;96492.44;5014037;28;20508;-73
2021/07/08 04:45:00;;;;;;;13.45;8.75;;;;;;;18.69;86.37;96492.16;5014105;28;20535;-73
2021/07/08 04:47:27;;;;;;;14.95;8.98;;;;;;;18.69;86.23;96501.25;5013667;28;20046;-73
2021/07/08 04:49:54;;;;;;;16.40;8.35;;;;;;;18.67;86.30;96500.75;5013871;28;20413;-73
2021/07/08 04:52:20;;;;;;;13.77;8.23;;;;;;;18.66;86.29;96496.41;5013643;28;20046;-73
2021/07/08 04:54:47;;;;;;;19.50;9.73;;;;;;;18.69;86.26;96487.44;5014100;28;20057;-73
2021/07/08 04:57:16;;;;;;;12.77;8.57;;;;;;;18.71;86.23;96485.09;5013456;28;20128;-72
2021/07/08 04:59:42;;;;;;;17.30;9.73;;;;;;;18.70;86.47;96482.72;5013815;28;20041;-73
2021/07/08 05:02:09;;;;;;;18.85;8.82;;;;;;;18.71;86.67;96479.59;5013487;28;20081;-72
2021/07/08 05:04:37;;;;;;;15.85;8.57;;;;;;;18.75;86.40;96476.91;5012557;28;20049;-73
2021/07/08 05:07:04;;;;;;;17.45;9.30;;;;;;;18.77;86.08;96482.84;5013309;28;20402;-72
2021/07/08 05:09:30;;;;;;;16.13;8.85;;;;;;;18.77;86.37;96480.06;5013651;28;20052;-73
2021/07/08 05:11:57;;;;;;;14.45;8.88;;;;;;;18.77;86.44;96472.59;5013380;28;20049;-73
2021/07/08 05:14:23;;;;;;;21.10;9.88;;;;;;;18.78;86.55;96462.34;5011376;28;20505;-73
2021/07/08 05:16:50;;;;;;;20.20;9.15;;;;;;;18.77;86.28;96456.03;5010876;28;20057;-73
2021/07/08 05:19:16;;;;;;;17.52;9.38;;;;;;;18.77;86.31;96467.06;5010479;28;20049;-73
2021/07/08 05:21:48;;;;;;;14.40;7.43;;;;;;;18.82;86.24;96471.50;5000485;28;20049;-73
2021/07/08 05:24:18;;;;;;;13.82;9.32;;;;;;;18.84;86.05;96466.41;4993494;28;20042;-73
2021/07/08 05:26:45;;;;;;;13.82;7.85;;;;;;;18.85;86.23;96478.25;4993751;28;20046;-73
2021/07/08 05:29:12;;;;;;;11.75;8.25;;;;;;;18.85;85.99;96472.75;5001175;28;20052;-73
2021/07/08 05:31:38;;;;;;;18.98;8.63;;;;;;;18.87;86.18;96475.91;5013034;28;20049;-73
2021/07/08 05:34:05;;;;;;;14.43;8.05;;;;;;;18.84;86.18;96482.94;5012365;28;20516;-72
2021/07/08 05:36:31;;;;;;;11.38;6.47;;;;;;;18.85;86.13;96484.56;5013256;28;20048;-73
2021/07/08 05:38:59;;;;;;;13.77;7.20;;;;;;;18.83;86.06;96491.59;5013011;28;20042;-73
2021/07/08 05:41:26;;;;;;;10.88;7.18;;;;;;;18.84;86.51;96482.94;5012292;28;20049;-73
2021/07/08 05:43:52;;;;;;;13.95;7.95;;;;;;;18.88;86.49;96483.00;5013122;28;20417;-73
2021/07/08 05:46:19;;;;;;;14.65;7.60;;;;;;;18.89;86.49;96477.13;5012303;28;20046;-73
2021/07/08 05:48:46;;;;;;;16.10;7.88;;;;;;;18.92;86.64;96473.63;5013109;28;20041;-73
2021/07/08 05:51:12;;;;;;;12.05;7.45;;;;;;;18.93;86.51;96468.91;5012398;28;20054;-73
2021/07/08 05:53:39;;;;;;;12.02;8.57;;;;;;;18.93;86.53;96461.44;5013001;28;20053;-73
2021/07/08 05:56:07;;;;;;;17.45;8.23;;;;;;;18.95;86.22;96461.88;5012522;28;20050;-72
2021/07/08 05:58:34;;;;;;;13.38;7.55;;;;;;;18.96;86.16;96468.97;5012926;28;20041;-73
2021/07/08 06:01:00;;;;;;;15.55;8.27;;;;;;;18.96;86.04;96468.97;5012420;28;20092;-73
2021/07/08 06:03:27;;;;;;;14.40;7.68;;;;;;;19.00;85.64;96469.84;5012321;28;20046;-75
2021/07/08 06:05:53;;;;;;;13.82;8.10;;;;;;;19.01;85.30;96462.34;5012553;28;20431;-77
2021/07/08 06:08:19;;;;;;;13.80;7.70;;;;;;;19.00;84.91;96469.00;5011932;28;20046;-76
2021/07/08 06:10:46;;;;;;;13.38;7.05;;;;;;;19.00;85.14;96474.53;5012417;28;20396;-75
2021/07/08 06:13:14;;;;;;;12.85;7.47;;;;;;;19.01;84.72;96476.16;5012097;28;20046;-75
2021/07/08 06:15:41;;;;;;;16.05;7.97;;;;;;;18.99;85.06;96475.72;5012032;28;20406;-73
2021/07/08 06:18:08;;;;;;;24.85;10.23;;;;;;;18.98;85.10;96469.41;5013144;28;20100;-73
2021/07/08 06:20:35;;;;;;;14.48;8.80;;;;;;;18.95;85.55;96472.09;5032068;28;20053;-73
2021/07/08 06:23:01;;;;;;;14.82;8.80;;;;;;;18.97;85.83;96476.09;5031666;28;20057;-73
2021/07/08 06:25:30;;;;;;;14.05;8.68;;;;;;;19.02;86.19;96473.00;5031338;28;20044;-73
2021/07/08 06:27:57;;;;;;;15.82;8.77;;;;;;;19.07;85.88;96487.69;5030613;28;20057;-74
2021/07/08 06:30:25;;;;;;;19.20;8.32;;;;;;;19.10;85.71;96481.41;5013221;28;20083;-74
2021/07/08 06:32:52;;;;;;;16.42;8.52;;;;;;;19.14;85.86;96479.50;5011840;28;20058;-73
2021/07/08 06:35:18;;;;;;;15.00;7.75;;;;;;;19.15;86.02;96481.09;5011634;28;20061;-75
2021/07/08 06:37:45;;;;;;;15.30;8.57;;;;;;;19.17;85.94;96467.72;5011490;28;20049;-73
2021/07/08 06:40:14;;;;;;;12.73;7.28;;;;;;;19.19;85.84;96476.41;5011515;28;20050;-73
2021/07/08 06:42:40;;;;;;;17.17;8.10;;;;;;;19.22;86.02;96470.97;5012069;28;20074;-73
2021/07/08 06:45:11;;;;;;;14.02;8.80;;;;;;;19.25;85.99;96475.72;5011441;28;20053;-73
2021/07/08 06:47:41;;;;;;;14.68;8.50;;;;;;;19.27;85.99;96481.69;5011955;28;20128;-73
2021/07/08 06:50:09;;;;;;;14.68;8.55;;;;;;;19.26;85.83;96473.75;5010865;28;20137;-73
2021/07/08 06:52:35;;;;;;;17.10;9.45;;;;;;;19.21;84.92;96480.41;5011761;28;20046;-73
2021/07/08 06:55:02;;;;;;;18.92;9.48;;;;;;;19.24;84.55;96484.38;5011415;28;20057;-73
2021/07/08 06:57:29;;;;;;;12.38;8.38;;;;;;;19.33;84.05;96471.13;5011895;28;20050;-73
2021/07/08 06:59:55;;;;;;;15.27;8.50;;;;;;;19.42;84.32;96457.03;5011408;28;20046;-72
2021/07/08 07:02:22;;;;;;;15.07;8.43;;;;;;;19.50;84.65;96459.53;5011136;28;20061;-73
2021/07/08 07:04:49;;;;;;;13.25;8.63;;;;;;;19.53;84.44;96475.38;5011269;28;20053;-73
2021/07/08 07:07:16;;;;;;;14.18;8.45;;;;;;;19.55;84.37;96478.53;5010780;28;20049;-73
2021/07/08 07:09:42;;;;;;;11.88;8.20;;;;;;;19.57;84.74;96475.41;5011608;28;20045;-72
2021/07/08 07:12:10;;;;;;;9.75;7.65;;;;;;;19.58;84.72;96470.69;5011050;28;20129;-72
2021/07/08 07:14:36;;;;;;;17.08;9.38;;;;;;;19.59;84.69;96466.75;5011229;28;20046;-73
2021/07/08 07:17:03;;;;;;;12.00;8.13;;;;;;;19.61;84.77;96481.00;5011073;28;20042;-73
2021/07/08 07:19:30;;;;;;;12.57;8.32;;;;;;;19.65;84.02;96481.88;5011125;28;20404;-73
2021/07/08 07:22:00;;;;;;;15.15;8.82;;;;;;;19.61;83.17;96486.53;5011094;28;20069;-73
2021/07/08 07:24:27;;;;;;;14.18;9.45;;;;;;;19.58;83.33;96492.78;5010499;28;20058;-73
2021/07/08 07:26:53;;;;;;;20.77;10.70;;;;;;;19.56;83.73;96487.63;5010737;28;20046;-73
2021/07/08 07:29:20;;;;;;;13.38;9.57;;;;;;;19.58;83.65;96487.28;5013268;28;20057;-73
2021/07/08 07:31:46;;;;;;;18.05;8.90;;;;;;;19.61;83.92;96486.53;5015053;28;20038;-73
2021/07/08 07:34:14;;;;;;;16.17;8.80;;;;;;;19.64;83.79;96496.84;5014546;28;20050;-72
2021/07/08 07:36:41;;;;;;;15.50;10.20;;;;;;;19.64;83.84;96499.63;5015065;28;20049;-73
2021/07/08 07:39:09;;;;;;;13.90;9.82;;;;;;;19.64;83.75;96505.13;5014525;28;20050;-73
2021/07/08 07:41:35;;;;;;;17.08;10.15;;;;;;;19.66;83.25;96502.78;5015093;28;20052;-73
2021/07/08 07:44:02;;;;;;;15.80;9.15;;;;;;;19.67;83.21;96496.88;5015002;28;20060;-73
2021/07/08 07:46:28;;;;;;;23.60;11.90;;;;;;;19.69;82.83;96496.53;5014760;28;20038;-73
2021/07/08 07:48:55;;;;;;;14.48;9.80;;;;;;;19.67;83.08;96496.88;5015014;28;20045;-73
2021/07/08 07:51:22;;;;;;;16.08;9.82;;;;;;;19.67;83.06;96493.31;5013978;28;20061;-74
2021/07/08 07:53:48;;;;;;;13.90;9.80;;;;;;;19.66;83.02;96491.75;5028804;28;20045;-74
2021/07/08 07:56:16;;;;;;;16.08;9.35;;;;;;;19.66;83.10;96494.50;5034370;28;20045;-74
2021/07/08 07:58:43;;;;;;;15.43;9.63;;;;;;;19.70;82.98;96495.34;5029633;28;20444;-75
2021/07/08 08:01:10;;;;;;;14.80;9.57;;;;;;;19.71;82.62;96496.94;5014008;28;20042;-74
2021/07/08 08:03:39;;;;;;;15.93;10.55;;;;;;;19.69;83.20;96500.09;5014245;28;20046;-73
2021/07/08 08:08:49;;;;;;;15.70;9.90;;;;;;;19.68;83.13;96508.72;4994882;28;20507;-73
2021/07/08 08:11:20;;;;;;;12.65;9.40;;;;;;;19.66;82.69;96505.56;4994436;28;20054;-73
2021/07/08 08:13:47;;;;;;;14.32;10.18;;;;;;;19.68;82.78;96511.47;4994819;28;20054;-73
2021/07/08 08:16:14;;;;;;;11.95;10.00;;;;;;;19.71;82.98;96513.50;4994338;28;20056;-74
2021/07/08 08:18:40;;;;;;;18.30;10.38;;;;;;;19.71;82.89;96517.06;4994686;28;20047;-75
2021/07/08 08:21:07;;;;;;;14.10;9.98;;;;;;;19.72;83.17;96520.63;4994155;28;20743;-74
2021/07/08 08:23:33;;;;;;;15.15;9.98;;;;;;;19.68;82.53;96514.25;4994560;28;20451;-73
2021/07/08 08:26:00;;;;;;;15.38;9.75;;;;;;;19.66;82.60;96502.78;4994202;28;20050;-74
2021/07/08 08:28:28;;;;;;;22.42;12.10;;;;;;;19.65;83.44;96498.44;4995912;28;20130;-74
2021/07/08 08:30:55;;;;;;;16.60;11.23;;;;;;;19.69;84.12;96500.09;5012028;28;20137;-74
2021/07/08 08:33:22;;;;;;;16.98;10.70;;;;;;;19.72;83.96;96501.28;5011845;28;20057;-74
2021/07/08 08:35:48;;;;;;;20.08;11.65;;;;;;;19.77;83.15;96500.97;5013714;28;20054;-74
2021/07/08 08:38:15;;;;;;;18.30;10.73;;;;;;;19.76;83.27;96493.84;5013374;28;20046;-74
2021/07/08 08:40:41;;;;;;;14.00;10.48;;;;;;;19.77;83.56;96499.00;5013403;28;20047;-73
2021/07/08 08:43:08;;;;;;;20.90;10.57;;;;;;;19.76;83.33;96502.13;5013478;28;20049;-73
2021/07/08 08:45:36;;;;;;;19.33;11.98;;;;;;;19.78;83.54;96513.59;5014076;28;20045;-73
2021/07/08 08:48:05;;;;;;;18.70;11.43;;;;;;;19.70;83.36;96506.41;5013509;28;20046;-73
2021/07/08 08:50:33;;;;;;;18.67;12.32;;;;;;;19.69;83.63;96507.56;5013263;28;20081;-73
2021/07/08 08:53:00;;;;;;;20.15;12.35;;;;;;;19.71;84.10;96514.31;5013851;28;20046;-72
2021/07/08 08:55:28;;;;;;;17.90;12.32;;;;;;;19.74;84.32;96513.56;5013170;28;20045;-72
2021/07/08 08:57:54;;;;;;;21.58;12.25;;;;;;;19.70;83.69;96528.50;5013328;28;20053;-75
2021/07/08 09:00:46;;;;;;;23.95;13.65;;;;;;;19.67;84.26;96523.72;5012849;28;20045;-73
2021/07/08 09:03:14;;;;;;;16.88;12.00;;;;;;;19.70;84.25;96534.81;5013356;28;20073;-72
2021/07/08 09:05:43;;;;;;;15.05;11.55;;;;;;;19.76;84.16;96532.53;5013175;28;20046;-73
2021/07/08 09:08:19;;;;;;;18.38;12.10;;;;;;;19.77;83.67;96542.41;5012906;28;20096;-73
2021/07/08 09:10:51;;;;;;;16.75;11.80;;;;;;;19.78;83.68;96546.75;5013261;28;20045;-73
2021/07/08 09:13:18;;;;;;;18.03;12.43;;;;;;;19.77;84.76;96547.94;5012885;28;20054;-73
2021/07/08 09:15:46;;;;;;;17.48;12.35;;;;;;;19.73;84.82;96538.78;5013318;28;20042;-73
2021/07/08 09:18:14;;;;;;;19.67;13.60;;;;;;;19.75;84.54;96547.53;5012869;28;20058;-73
2021/07/08 09:20:41;;;;;;;17.05;12.48;;;;;;;19.80;84.29;96544.44;5012811;28;20045;-72
2021/07/08 09:23:11;;;;;;;22.85;12.50;;;;;;;19.77;83.68;96534.13;5012839;28;20441;-73
2021/07/08 09:25:38;;;;;;;19.52;13.25;;;;;;;19.74;83.85;96534.88;5013122;28;20073;-74
2021/07/08 09:28:21;;;;;;;21.25;13.73;;;;;;;19.71;84.57;96543.91;5012624;28;20130;-73
2021/07/08 09:30:57;;;;;;;20.48;12.85;;;;;;;19.73;84.64;96549.84;4992717;28;20071;-73
2021/07/08 09:33:36;;;;;;;18.98;13.95;;;;;;;19.73;85.14;96547.09;4992921;28;20038;-73
2021/07/08 09:36:11;;;;;;;26.95;15.07;;;;;;;19.76;85.30;96543.59;4991669;28;20109;-73
2021/07/08 09:38:40;;;;;;;20.35;13.45;;;;;;;19.75;85.37;96544.75;5011289;28;20044;-73
2021/07/08 09:41:10;;;;;;;20.63;14.57;;;;;;;19.75;85.29;96551.06;5022063;28;20046;-73
2021/07/08 09:43:39;;;;;;;19.60;14.65;;;;;;;19.78;85.56;96547.59;5032476;28;20042;-73
2021/07/08 09:46:08;;;;;;;21.15;13.55;;;;;;;19.85;84.86;96541.34;5031765;28;20065;-73
2021/07/08 09:48:35;;;;;;;19.77;13.25;;;;;;;19.86;84.61;96528.31;5032461;28;20398;-73
2021/07/08 09:51:02;;;;;;;20.80;13.63;;;;;;;19.89;84.84;96525.63;5031647;28;20088;-72
2021/07/08 09:53:29;;;;;;;17.83;12.50;;;;;;;19.90;84.02;96521.69;5031807;28;20045;-73
2021/07/08 09:56:03;;;;;;;18.85;12.73;;;;;;;19.96;84.45;96514.66;5032667;28;20046;-72
2021/07/08 09:58:31;;;;;;;17.90;13.18;;;;;;;20.05;84.04;96523.47;5029358;28;20049;-73
2021/07/08 10:00:58;;;;;;;14.93;11.85;;;;;;;20.15;83.96;96519.25;5012405;28;20053;-73
2021/07/08 10:03:26;;;;;;;16.15;11.27;;;;;;;20.23;83.13;96522.88;5011511;28;20049;-73
2021/07/08 10:05:53;;;;;;;17.00;11.77;;;;;;;20.25;82.87;96517.75;5012450;28;20052;-73
2021/07/08 10:08:21;;;;;;;20.98;14.48;;;;;;;20.26;82.46;96511.88;5011361;28;20503;-73
2021/07/08 10:10:49;;;;;;;24.80;13.73;;;;;;;20.24;82.73;96503.13;5012193;28;20050;-74
2021/07/08 10:13:17;;;;;;;17.00;12.98;;;;;;;20.24;82.96;96502.34;5011154;28;20053;-73
2021/07/08 10:15:46;;;;;;;18.20;13.55;;;;;;;20.23;83.07;96492.47;5012239;28;20052;-74
2021/07/08 10:18:13;;;;;;;16.25;12.77;;;;;;;20.25;82.93;96481.81;5011409;28;20046;-73
2021/07/08 10:20:42;;;;;;;19.10;13.90;;;;;;;20.37;83.29;96478.81;5011610;28;20041;-73
2021/07/08 10:23:11;;;;;;;23.30;13.05;;;;;;;20.46;83.33;96487.59;5011247;28;20505;-73
2021/07/08 10:25:38;;;;;;;17.05;12.52;;;;;;;20.46;81.60;96493.13;5012172;28;20493;-74
2021/07/08 10:28:05;;;;;;;17.30;12.20;;;;;;;20.48;80.00;96499.09;5011247;28;20046;-74
2021/07/08 10:30:33;;;;;;;16.83;12.23;;;;;;;20.56;79.84;96511.81;5011860;28;20041;-73
2021/07/08 10:33:00;;;;;;;13.55;10.88;;;;;;;20.67;79.35;96525.75;5011663;28;20053;-73
2021/07/08 10:35:42;;;;;;;21.00;12.50;;;;;;;20.59;78.78;96524.91;5010616;28;20049;-74
2021/07/08 10:38:35;;;;;;;17.03;12.47;;;;;;;20.55;79.63;96523.28;5014999;28;20046;-73
2021/07/08 10:41:03;;;;;;;17.95;11.95;;;;;;;20.51;80.05;96534.28;5030246;28;20046;-73
2021/07/08 10:43:35;;;;;;;18.52;11.85;;;;;;;20.55;79.98;96523.28;5029399;28;20041;-73
2021/07/08 10:46:03;;;;;;;19.30;12.70;;;;;;;20.53;79.09;96543.03;5030104;28;20084;-73
2021/07/08 10:48:40;;;;;;;17.98;13.18;;;;;;;20.42;79.78;96547.63;5030977;28;20041;-75
2021/07/08 10:51:10;;;;;;;18.02;12.65;;;;;;;20.31;80.22;96541.16;5030232;28;20045;-72
2021/07/08 10:53:41;;;;;;;14.60;12.88;;;;;;;20.28;80.47;96536.38;5031447;28;20041;-72
2021/07/08 10:56:09;;;;;;;18.92;13.45;;;;;;;20.19;81.29;96566.28;5030657;28;20125;-72
2021/07/08 10:58:54;;;;;;;18.70;13.25;;;;;;;20.10;82.34;96572.09;5028190;28;20556;-73
2021/07/08 11:01:41;;;;;;;19.92;14.57;;;;;;;20.04;82.86;96577.13;5010543;28;20506;-72
2021/07/08 11:04:09;;;;;;;19.83;15.60;;;;;;;19.88;83.86;96579.28;5011008;28;20072;-74
2021/07/08 11:06:38;;;;;;;24.42;16.73;;;;;;;19.74;84.65;96551.47;5010993;28;20046;-72
2021/07/08 11:09:05;;;;;;;24.63;18.17;;;;;;;19.66;85.74;96535.94;5011364;28;20050;-73
2021/07/08 11:12:05;;;;;;;24.70;17.73;;;;;;;19.53;86.20;96519.56;5010978;28;20053;-73
2021/07/08 11:14:36;;;;;;;25.75;18.65;;;;;;;19.45;87.07;96509.56;5011171;28;20509;-73
2021/07/08 11:17:16;;;;;;;25.92;19.23;;;;;;;19.38;88.62;96508.66;5010906;28;20057;-73
2021/07/08 11:19:45;;;;;;;28.58;19.73;;;;;;;19.25;88.46;96503.34;5010846;28;20425;-73
2021/07/08 11:22:25;;;;;;;27.08;20.73;;;;;;;19.24;88.93;96509.22;5010794;28;20076;-73
2021/07/08 11:24:53;;;;;;;27.67;20.45;;;;;;;19.23;89.31;96513.16;5011318;28;20042;-73
2021/07/08 11:27:33;;;;;;;29.70;21.55;;;;;;;19.24;90.12;96512.00;5010787;28;20659;-72